Chrisanthi — SX7108 — position and weather

sailwx.info

Track history (hours):
 
Tides and Currents Weather Stations Pressure Air Temp Water Temp Dewpoint Dewpoint Depression Visibility Wind Speed Wind Dir Waves Ship Positions

Chrisanthi

Last reported at 2016-Jul-26 00:33 UTC. Time now 2016-Jul-26 19:59 UTC.
Position N 37°01' E 025°18'.

Length 56 m; draft 3.9 m.

Type: Ship (hazmat cat A). MMSI: 237009100.

Date/timePositionNaut miles runAvg speedWind from/ knotsBaromVisibWave heightAir tempDewpointWater temp
2016-Jul-26 00:33N 37°01' E 025°18'1010.1
2016-Jul-25 23:33N 37°11' E 025°18'10 9.6
2016-Jul-25 22:31N 37°18' E 025°09'17 0.4
2016-Jul-24 03:23N 37°19' E 025°30'7 8.9
2016-Jul-24 02:33N 37°19' E 025°21'10 9.5
2016-Jul-24 01:31N 37°11' E 025°13'9 1.4
2016-Jul-23 19:20N 37°04' E 025°06'13 0.8
2016-Jul-23 03:11N 36°59' E 025°21'6 9.0
2016-Jul-23 02:33N 37°05' E 025°19'3 2.8
2016-Jul-23 01:33N 37°06' E 025°22'0 0.0
2016-Jul-23 00:33N 37°06' E 025°22'0 0.0
2016-Jul-22 23:33N 37°06' E 025°22'0 0.0
2016-Jul-22 22:33N 37°06' E 025°22'0 0.0
2016-Jul-22 21:33N 37°06' E 025°22'0 0.3
2016-Jul-22 20:33N 37°06' E 025°22'0 0.3
2016-Jul-22 19:33N 37°06' E 025°22'0 0.0
2016-Jul-22 18:33N 37°06' E 025°22'7 7.1
2016-Jul-22 17:33N 37°12' E 025°28'1010.1
2016-Jul-22 16:32N 37°14' E 025°41'  
2016-Jul-19 12:04N 37°03' E 025°01'10 1.2
2016-Jul-19 03:15N 37°09' E 025°12'6 8.8
2016-Jul-19 02:33N 37°08' E 025°20'3 2.7
2016-Jul-19 01:33N 37°06' E 025°22'0 0.0
2016-Jul-19 00:34N 37°06' E 025°22'0 0.0
2016-Jul-18 23:33N 37°06' E 025°22'0 0.0
2016-Jul-18 22:33N 37°06' E 025°22'0 0.0
2016-Jul-18 21:33N 37°06' E 025°22'4 4.4
2016-Jul-18 20:33N 37°10' E 025°18'1010.0
2016-Jul-18 19:33N 37°15' E 025°08'11 9.7
2016-Jul-18 18:28N 37°20' E 024°56'47 9.2
2016-Jul-18 13:19N 37°35' E 023°60'810.1
2016-Jul-18 12:33N 37°37' E 023°51'1010.0
2016-Jul-18 11:33N 37°43' E 023°40'10 9.8
2016-Jul-18 10:33N 37°49' E 023°31'1110.6
2016-Jul-18 09:33N 37°53' E 023°18'1010.2
2016-Jul-18 08:33N 37°55' E 023°06'0 0.1
2016-Jul-18 05:21N 37°55' E 023°05'0 0.0
2016-Jul-18 04:26N 37°55' E 023°05'0 0.0
2016-Jul-18 02:32N 37°55' E 023°05'0 0.0
2016-Jul-17 22:32N 37°55' E 023°05'1 0.6
2016-Jul-17 21:33N 37°55' E 023°06'0 0.0
2016-Jul-17 20:30N 37°55' E 023°06'0 0.0
2016-Jul-17 19:29N 37°55' E 023°06'0 0.0
2016-Jul-17 18:32N 37°55' E 023°06'0 0.0
2016-Jul-17 17:32N 37°55' E 023°06'0 0.0
2016-Jul-17 16:33N 37°55' E 023°06'0 0.0
2016-Jul-17 15:29N 37°55' E 023°06'0 0.0
2016-Jul-17 14:32N 37°55' E 023°06'0 0.0
2016-Jul-17 13:33N 37°55' E 023°06'0 0.0
2016-Jul-17 12:28N 37°55' E 023°06'0 0.0
2016-Jul-17 11:28N 37°55' E 023°06'0 0.0
2016-Jul-17 10:31N 37°55' E 023°06'0 0.0
2016-Jul-17 09:28N 37°55' E 023°06'0 0.0
2016-Jul-17 08:33N 37°55' E 023°06'0 0.0
2016-Jul-17 07:29N 37°55' E 023°06'0 0.0
2016-Jul-17 06:33N 37°55' E 023°06'0 0.0
2016-Jul-17 04:33N 37°55' E 023°06'0 0.0
2016-Jul-17 03:33N 37°55' E 023°06'0 0.0
2016-Jul-17 02:33N 37°55' E 023°06'0 0.0
2016-Jul-17 01:33N 37°55' E 023°06'0 0.0
2016-Jul-17 00:33N 37°55' E 023°06'0 0.0
2016-Jul-16 23:33N 37°55' E 023°06'0 0.0
2016-Jul-16 22:33N 37°55' E 023°06'0 0.0
2016-Jul-16 21:31N 37°55' E 023°06'0 0.0
2016-Jul-16 20:32N 37°55' E 023°06'0 0.0
2016-Jul-16 19:33N 37°55' E 023°06'0 0.0
2016-Jul-16 18:31N 37°55' E 023°06'0 0.0
2016-Jul-16 17:30N 37°55' E 023°06'8 8.7
2016-Jul-16 16:33N 37°49' E 023°13'10 9.8
2016-Jul-16 15:33N 37°40' E 023°19'1010.3
2016-Jul-16 14:33N 37°38' E 023°32'1010.1
2016-Jul-16 13:33N 37°31' E 023°40'  
Track history (hours):
 
Tides and Currents Weather Stations Pressure Air Temp Water Temp Dewpoint Dewpoint Depression Visibility Wind Speed Wind Dir Waves Ship Positions

Chrisanthi

Last reported at 2016-Jul-26 00:33 UTC. Time now 2016-Jul-26 19:59 UTC.
Position N 37°01' E 025°18'.

Length 56 m; draft 3.9 m.

Type: Ship (hazmat cat A). MMSI: 237009100.

Date/timePositionNaut miles runAvg speedWind from/ knotsBaromVisibWave heightAir tempDewpointWater temp
2016-Jul-26 00:33N 37°01' E 025°18'1010.1
2016-Jul-25 23:33N 37°11' E 025°18'10 9.6
2016-Jul-25 22:31N 37°18' E 025°09'17 0.4
2016-Jul-24 03:23N 37°19' E 025°30'7 8.9
2016-Jul-24 02:33N 37°19' E 025°21'10 9.5
2016-Jul-24 01:31N 37°11' E 025°13'9 1.4
2016-Jul-23 19:20N 37°04' E 025°06'13 0.8
2016-Jul-23 03:11N 36°59' E 025°21'6 9.0
2016-Jul-23 02:33N 37°05' E 025°19'3 2.8
2016-Jul-23 01:33N 37°06' E 025°22'0 0.0
2016-Jul-23 00:33N 37°06' E 025°22'0 0.0
2016-Jul-22 23:33N 37°06' E 025°22'0 0.0
2016-Jul-22 22:33N 37°06' E 025°22'0 0.0
2016-Jul-22 21:33N 37°06' E 025°22'0 0.3
2016-Jul-22 20:33N 37°06' E 025°22'0 0.3
2016-Jul-22 19:33N 37°06' E 025°22'0 0.0
2016-Jul-22 18:33N 37°06' E 025°22'7 7.1
2016-Jul-22 17:33N 37°12' E 025°28'1010.1
2016-Jul-22 16:32N 37°14' E 025°41'  
2016-Jul-19 12:04N 37°03' E 025°01'10 1.2
2016-Jul-19 03:15N 37°09' E 025°12'6 8.8
2016-Jul-19 02:33N 37°08' E 025°20'3 2.7
2016-Jul-19 01:33N 37°06' E 025°22'0 0.0
2016-Jul-19 00:34N 37°06' E 025°22'0 0.0
2016-Jul-18 23:33N 37°06' E 025°22'0 0.0
2016-Jul-18 22:33N 37°06' E 025°22'0 0.0
2016-Jul-18 21:33N 37°06' E 025°22'4 4.4
2016-Jul-18 20:33N 37°10' E 025°18'1010.0
2016-Jul-18 19:33N 37°15' E 025°08'11 9.7
2016-Jul-18 18:28N 37°20' E 024°56'47 9.2
2016-Jul-18 13:19N 37°35' E 023°60'810.1
2016-Jul-18 12:33N 37°37' E 023°51'1010.0
2016-Jul-18 11:33N 37°43' E 023°40'10 9.8
2016-Jul-18 10:33N 37°49' E 023°31'1110.6
2016-Jul-18 09:33N 37°53' E 023°18'1010.2
2016-Jul-18 08:33N 37°55' E 023°06'0 0.1
2016-Jul-18 05:21N 37°55' E 023°05'0 0.0
2016-Jul-18 04:26N 37°55' E 023°05'0 0.0
2016-Jul-18 02:32N 37°55' E 023°05'0 0.0
2016-Jul-17 22:32N 37°55' E 023°05'1 0.6
2016-Jul-17 21:33N 37°55' E 023°06'0 0.0
2016-Jul-17 20:30N 37°55' E 023°06'0 0.0
2016-Jul-17 19:29N 37°55' E 023°06'0 0.0
2016-Jul-17 18:32N 37°55' E 023°06'0 0.0
2016-Jul-17 17:32N 37°55' E 023°06'0 0.0
2016-Jul-17 16:33N 37°55' E 023°06'0 0.0
2016-Jul-17 15:29N 37°55' E 023°06'0 0.0
2016-Jul-17 14:32N 37°55' E 023°06'0 0.0
2016-Jul-17 13:33N 37°55' E 023°06'0 0.0
2016-Jul-17 12:28N 37°55' E 023°06'0 0.0
2016-Jul-17 11:28N 37°55' E 023°06'0 0.0
2016-Jul-17 10:31N 37°55' E 023°06'0 0.0
2016-Jul-17 09:28N 37°55' E 023°06'0 0.0
2016-Jul-17 08:33N 37°55' E 023°06'0 0.0
2016-Jul-17 07:29N 37°55' E 023°06'0 0.0
2016-Jul-17 06:33N 37°55' E 023°06'0 0.0
2016-Jul-17 04:33N 37°55' E 023°06'0 0.0
2016-Jul-17 03:33N 37°55' E 023°06'0 0.0
2016-Jul-17 02:33N 37°55' E 023°06'0 0.0
2016-Jul-17 01:33N 37°55' E 023°06'0 0.0
2016-Jul-17 00:33N 37°55' E 023°06'0 0.0
2016-Jul-16 23:33N 37°55' E 023°06'0 0.0
2016-Jul-16 22:33N 37°55' E 023°06'0 0.0
2016-Jul-16 21:31N 37°55' E 023°06'0 0.0
2016-Jul-16 20:32N 37°55' E 023°06'0 0.0
2016-Jul-16 19:33N 37°55' E 023°06'0 0.0
2016-Jul-16 18:31N 37°55' E 023°06'0 0.0
2016-Jul-16 17:30N 37°55' E 023°06'8 8.7
2016-Jul-16 16:33N 37°49' E 023°13'10 9.8
2016-Jul-16 15:33N 37°40' E 023°19'1010.3
2016-Jul-16 14:33N 37°38' E 023°32'1010.1
2016-Jul-16 13:33N 37°31' E 023°40'  

Dump ship's entire track history